Welcome to Northern Hawkes Bay. New Zealand.
PWS Header
      nz Flag



Hit Counter


W3C Valid W3C Valid logo


    Wairoa

Select any of the Stations below to visit their websites.










Historic Data from Weather Underground
Select the location of interest below. Wairoa is the default. Please have patience, this Data is slow to load in.
Northern Hawkes Bay Historical Data
Daily Summary for February 14, 2018 Units:  Both    English   Metric
« Previous Day
Next Day »
Daily Weekly Monthly Yearly Custom
  High: Low: Average:
Temperature: 84.9 °F /  29.4 °C 66.2 °F /  19.0 °C 72.7 °F /  22.6 °C
Dew Point: 73.6 °F /  23.1 °C 65.7 °F /  18.7 °C 68.9 °F /  20.5 °C
Humidity: 99% 64% 88%
Wind Speed: 7.6mph /  12.2km/h - 1.2mph /  1.9km/h
Wind Gust: 14.5mph /  23.3km/h - -
Wind- - SW
Pressure: 29.9 in /  1012.8 hPa 29.8 in /  1009.0 hPa -
Precipitation: 0.26 in /  6.6 mm    
Historical Graphs
 
 
Tabular Data for February 14, 2018
Time Temperature Dew Point Pressure Wind Wind Speed Wind Gust Humidity Rainfall Rate (Hourly) solar
00:00 71.1 °F /  21.7 °C 70 °F /  21.1 °C 29.9in /  1012.8hPa Calm   0.7mph /  1.1km/h 96% 0in /  0.0mm 0 W/m2
00:05 71.1 °F /  21.7 °C 70 °F /  21.1 °C 29.9in /  1012.8hPa Calm   1.6mph /  2.6km/h 96% 0in /  0.0mm 0 W/m2
00:10 71.1 °F /  21.7 °C 70 °F /  21.1 °C 29.9in /  1012.8hPa Calm   1.6mph /  2.6km/h 96% 0in /  0.0mm 0 W/m2
00:15 71.1 °F /  21.7 °C 69.6 °F /  20.9 °C 29.9in /  1012.4hPa Calm     95% 0in /  0.0mm 0 W/m2
00:20 70.9 °F /  21.6 °C 69.4 °F /  20.8 °C 29.9in /  1012.8hPa Calm     95% 0in /  0.0mm 0 W/m2
00:25 70.9 °F /  21.6 °C 69.4 °F /  20.8 °C 29.9in /  1012.4hPa Calm     95% 0in /  0.0mm 0 W/m2
00:30 70.9 °F /  21.6 °C 69.4 °F /  20.8 °C 29.9in /  1012.4hPa Calm     95% 0in /  0.0mm 0 W/m2
00:35 70.7 °F /  21.5 °C 69.3 °F /  20.7 °C 29.9in /  1012.4hPa Calm     95% 0in /  0.0mm 0 W/m2
00:40 70.7 °F /  21.5 °C 69.4 °F /  20.8 °C 29.9in /  1012.1hPa Calm     96% 0in /  0.0mm 0 W/m2
00:45 70.7 °F /  21.5 °C 69.4 °F /  20.8 °C 29.9in /  1012.1hPa Calm     96% 0in /  0.0mm 0 W/m2
00:50 70.7 °F /  21.5 °C 69.4 °F /  20.8 °C 29.9in /  1012.1hPa Calm     96% 0in /  0.0mm 0 W/m2
00:55 70.7 °F /  21.5 °C 69.4 °F /  20.8 °C 29.9in /  1012.1hPa Calm     96% 0in /  0.0mm 0 W/m2
01:00 70.7 °F /  21.5 °C 69.4 °F /  20.8 °C 29.9in /  1012.4hPa Calm     96% 0in /  0.0mm 0 W/m2
01:07 70.7 °F /  21.5 °C 69.4 °F /  20.8 °C 29.9in /  1012.1hPa Calm     96% 0in /  0.0mm 0 W/m2
01:12 70.9 °F /  21.6 °C 69.4 °F /  20.8 °C 29.9in /  1012.1hPa Calm   0.7mph /  1.1km/h 95% 0in /  0.0mm 0 W/m2
01:17 71.1 °F /  21.7 °C 69.6 °F /  20.9 °C 29.9in /  1012.1hPa Calm   0.7mph /  1.1km/h 95% 0in /  0.0mm 0 W/m2
01:22 70.9 °F /  21.6 °C 69.4 °F /  20.8 °C 29.9in /  1012.1hPa Calm     95% 0in /  0.0mm 0 W/m2
01:27 70.9 °F /  21.6 °C 69.4 °F /  20.8 °C 29.9in /  1012.1hPa Calm     95% 0in /  0.0mm 0 W/m2
01:32 70.9 °F /  21.6 °C 69.4 °F /  20.8 °C 29.9in /  1012.1hPa Calm     95% 0in /  0.0mm 0 W/m2
01:37 70.9 °F /  21.6 °C 69.4 °F /  20.8 °C 29.9in /  1012.1hPa Calm     95% 0in /  0.0mm 0 W/m2
01:42 70.9 °F /  21.6 °C 69.4 °F /  20.8 °C 29.9in /  1012.1hPa Calm     95% 0in /  0.0mm 0 W/m2
01:47 71.1 °F /  21.7 °C 69.3 °F /  20.7 °C 29.9in /  1012.1hPa Calm     94% 0in /  0.0mm 0 W/m2
01:52 71.1 °F /  21.7 °C 69.3 °F /  20.7 °C 29.9in /  1012.1hPa Calm     94% 0in /  0.0mm 0 W/m2
01:57 71.1 °F /  21.7 °C 69.3 °F /  20.7 °C 29.9in /  1012.1hPa Calm     94% 0in /  0.0mm 0 W/m2
02:03 71.4 °F /  21.9 °C 69.6 °F /  20.9 °C 29.9in /  1012.1hPa Calm     94% 0in /  0.0mm 0 W/m2
02:08 71.8 °F /  22.1 °C 69.4 °F /  20.8 °C 29.9in /  1012.1hPa Calm   0.7mph /  1.1km/h 92% 0in /  0.0mm 0 W/m2
02:13 72 °F /  22.2 °C 69.3 °F /  20.7 °C 29.9in /  1012.1hPa Calm   0.7mph /  1.1km/h 91% 0in /  0.0mm 0 W/m2
02:18 71.8 °F /  22.1 °C 69.1 °F /  20.6 °C 29.9in /  1012.1hPa Calm     91% 0in /  0.0mm 0 W/m2
02:23 71.6 °F /  22.0 °C 68.9 °F /  20.5 °C 29.9in /  1012.1hPa Calm     91% 0in /  0.0mm 0 W/m2
02:28 71.4 °F /  21.9 °C 69.1 °F /  20.6 °C 29.9in /  1012.1hPa Calm     92% 0in /  0.0mm 0 W/m2
02:33 71.4 °F /  21.9 °C 69.3 °F /  20.7 °C 29.9in /  1011.7hPa Calm     93% 0in /  0.0mm 0 W/m2
02:38 71.2 °F /  21.8 °C 69.1 °F /  20.6 °C 29.9in /  1011.7hPa Calm     93% 0in /  0.0mm 0 W/m2
02:43 71.2 °F /  21.8 °C 69.1 °F /  20.6 °C 29.9in /  1012.1hPa Calm     93% 0in /  0.0mm 0 W/m2
02:48 71.1 °F /  21.7 °C 69.1 °F /  20.6 °C 29.9in /  1012.1hPa Calm     93% 0in /  0.0mm 0 W/m2
02:53 71.1 °F /  21.7 °C 69.1 °F /  20.6 °C 29.9in /  1012.1hPa Calm     93% 0in /  0.0mm 0 W/m2
02:58 71.1 °F /  21.7 °C 69.3 °F /  20.7 °C 29.9in /  1012.1hPa Calm     94% 0in /  0.0mm 0 W/m2
03:03 71.1 °F /  21.7 °C 69.3 °F /  20.7 °C 29.9in /  1012.1hPa Calm     94% 0in /  0.0mm 0 W/m2
03:08 71.1 °F /  21.7 °C 69.3 °F /  20.7 °C 29.9in /  1012.1hPa Calm     94% 0in /  0.0mm 0 W/m2
03:13 71.2 °F /  21.8 °C 69.4 °F /  20.8 °C 29.9in /  1012.1hPa Calm     94% 0in /  0.0mm 0 W/m2
03:18 71.2 °F /  21.8 °C 69.1 °F /  20.6 °C 29.9in /  1012.1hPa Calm     93% 0in /  0.0mm 0 W/m2
03:23 71.2 °F /  21.8 °C 69.1 °F /  20.6 °C 29.9in /  1012.1hPa Calm     93% 0in /  0.0mm 0 W/m2
03:28 71.2 °F /  21.8 °C 69.1 °F /  20.6 °C 29.9in /  1011.7hPa Calm     93% 0in /  0.0mm 0 W/m2
03:33 71.2 °F /  21.8 °C 69.1 °F /  20.6 °C 29.9in /  1012.1hPa Calm     93% 0in /  0.0mm 0 W/m2
03:38 71.2 °F /  21.8 °C 69.1 °F /  20.6 °C 29.9in /  1012.1hPa Calm     93% 0in /  0.0mm 0 W/m2
03:43 71.2 °F /  21.8 °C 69.1 °F /  20.6 °C 29.9in /  1011.7hPa Calm     93% 0in /  0.0mm 0 W/m2
03:48 71.4 °F /  21.9 °C 69.3 °F /  20.7 °C 29.9in /  1012.1hPa Calm   0.7mph /  1.1km/h 93% 0in /  0.0mm 0 W/m2
03:53 71.6 °F /  22.0 °C 68.9 °F /  20.5 °C 29.9in /  1011.7hPa Calm   0.7mph /  1.1km/h 91% 0in /  0.0mm 0 W/m2
03:58 71.6 °F /  22.0 °C 68.9 °F /  20.5 °C 29.9in /  1011.7hPa Calm   0.7mph /  1.1km/h 91% 0in /  0.0mm 0 W/m2
04:03 71.8 °F /  22.1 °C 68.7 °F /  20.4 °C 29.9in /  1011.7hPa Calm     90% 0in /  0.0mm 0 W/m2
04:08 72 °F /  22.2 °C 68.9 °F /  20.5 °C 29.9in /  1011.4hPa Calm     90% 0in /  0.0mm 0 W/m2
04:13 72 °F /  22.2 °C 68.5 °F /  20.3 °C 29.9in /  1011.7hPa Calm     89% 0in /  0.0mm 0 W/m2
04:18 72 °F /  22.2 °C 68.5 °F /  20.3 °C 29.9in /  1011.7hPa Calm     89% 0in /  0.0mm 0 W/m2
04:23 72 °F /  22.2 °C 68.2 °F /  20.1 °C 29.9in /  1011.7hPa Calm     88% 0in /  0.0mm 0 W/m2
04:28 72 °F /  22.2 °C 68.2 °F /  20.1 °C 29.9in /  1011.7hPa Calm     88% 0in /  0.0mm 0 W/m2
04:33 71.8 °F /  22.1 °C 68.4 °F /  20.2 °C 29.9in /  1011.4hPa Calm     89% 0in /  0.0mm 0 W/m2
04:38 71.6 °F /  22.0 °C 68.2 °F /  20.1 °C 29.9in /  1011.7hPa Calm     89% 0in /  0.0mm 0 W/m2
04:43 71.2 °F /  21.8 °C 68.5 °F /  20.3 °C 29.9in /  1011.7hPa Calm   0.7mph /  1.1km/h 91% 0in /  0.0mm 0 W/m2
04:48 71.2 °F /  21.8 °C 68.7 °F /  20.4 °C 29.9in /  1011.4hPa Calm   0.7mph /  1.1km/h 92% 0in /  0.0mm 0 W/m2
04:53 71.1 °F /  21.7 °C 68.7 °F /  20.4 °C 29.9in /  1011.4hPa Calm   0.7mph /  1.1km/h 92% 0in /  0.0mm 0 W/m2
04:58 70.9 °F /  21.6 °C 68.5 °F /  20.3 °C 29.9in /  1011.7hPa Calm   0.7mph /  1.1km/h 92% 0in /  0.0mm 0 W/m2
05:03 70.9 °F /  21.6 °C 68.5 °F /  20.3 °C 29.9in /  1011.7hPa Calm   1.6mph /  2.6km/h 92% 0in /  0.0mm 0 W/m2
05:08 70.9 °F /  21.6 °C 68.7 °F /  20.4 °C 29.9in /  1011.7hPa Calm   1.6mph /  2.6km/h 93% 0in /  0.0mm 0 W/m2
05:13 70.9 °F /  21.6 °C 68.7 °F /  20.4 °C 29.9in /  1011.7hPa Calm   1.6mph /  2.6km/h 93% 0in /  0.0mm 0 W/m2
05:18 70.7 °F /  21.5 °C 68.5 °F /  20.3 °C 29.9in /  1011.7hPa Calm   0.7mph /  1.1km/h 93% 0in /  0.0mm 0 W/m2
05:23 70.7 °F /  21.5 °C 68.5 °F /  20.3 °C 29.9in /  1011.7hPa Calm   0.7mph /  1.1km/h 93% 0in /  0.0mm 0 W/m2
05:28 70.9 °F /  21.6 °C 68.7 °F /  20.4 °C 29.9in /  1011.7hPa Calm   0.7mph /  1.1km/h 93% 0in /  0.0mm 0 W/m2
05:33 70.9 °F /  21.6 °C 68.5 °F /  20.3 °C 29.9in /  1011.7hPa Calm   0.7mph /  1.1km/h 92% 0in /  0.0mm 0 W/m2
05:38 70.9 °F /  21.6 °C 68.5 °F /  20.3 °C 29.9in /  1011.7hPa Calm   0.7mph /  1.1km/h 92% 0in /  0.0mm 0 W/m2
05:43 70.7 °F /  21.5 °C 68.4 °F /  20.2 °C 29.9in /  1011.7hPa Calm     92% 0in /  0.0mm 0 W/m2
05:48 70.7 °F /  21.5 °C 68.4 °F /  20.2 °C 29.9in /  1011.7hPa Calm     92% 0in /  0.0mm 0 W/m2
05:53 70.5 °F /  21.4 °C 68.2 °F /  20.1 °C 29.9in /  1011.7hPa Calm     92% 0in /  0.0mm 0 W/m2
05:58 70.5 °F /  21.4 °C 68.2 °F /  20.1 °C 29.9in /  1012.1hPa Calm     92% 0in /  0.0mm 0 W/m2
06:03 70.3 °F /  21.3 °C 67.8 °F /  19.9 °C 29.9in /  1011.7hPa Calm     92% 0in /  0.0mm 0 W/m2
06:08 70.3 °F /  21.3 °C 67.8 °F /  19.9 °C 29.9in /  1011.7hPa Calm   0.7mph /  1.1km/h 92% 0in /  0.0mm 0 W/m2
06:13 70.2 °F /  21.2 °C 67.8 °F /  19.9 °C 29.9in /  1011.7hPa Calm   1.6mph /  2.6km/h 92% 0in /  0.0mm 0 W/m2
06:18 70 °F /  21.1 °C 67.6 °F /  19.8 °C 29.9in /  1012.1hPa Calm   1.6mph /  2.6km/h 92% 0in /  0.0mm 0 W/m2
06:23 69.8 °F /  21.0 °C 67.6 °F /  19.8 °C 29.9in /  1011.7hPa Calm   1.6mph /  2.6km/h 93% 0in /  0.0mm 0 W/m2
06:28 69.8 °F /  21.0 °C 67.6 °F /  19.8 °C 29.9in /  1012.1hPa Calm   1.6mph /  2.6km/h 93% 0in /  0.0mm 0 W/m2
06:33 69.8 °F /  21.0 °C 67.6 °F /  19.8 °C 29.9in /  1011.7hPa Calm   1.6mph /  2.6km/h 93% 0in /  0.0mm 0 W/m2
06:38 69.8 °F /  21.0 °C 67.6 °F /  19.8 °C 29.9in /  1012.1hPa Calm   1.6mph /  2.6km/h 93% 0in /  0.0mm 2 W/m2
06:43 69.6 °F /  20.9 °C 67.8 °F /  19.9 °C 29.9in /  1012.1hPa Calm   1.6mph /  2.6km/h 94% 0in /  0.0mm 5 W/m2
06:48 69.6 °F /  20.9 °C 67.8 °F /  19.9 °C 29.9in /  1012.1hPa Calm   0.7mph /  1.1km/h 94% 0in /  0.0mm 9 W/m2
06:53 69.6 °F /  20.9 °C 67.8 °F /  19.9 °C 29.9in /  1011.7hPa Calm   0.7mph /  1.1km/h 94% 0in /  0.0mm 18 W/m2
06:58 69.6 °F /  20.9 °C 67.8 °F /  19.9 °C 29.9in /  1011.7hPa Calm   0.7mph /  1.1km/h 94% 0in /  0.0mm 25 W/m2
07:03 69.8 °F /  21.0 °C 67.6 °F /  19.8 °C 29.9in /  1011.7hPa Calm   0.7mph /  1.1km/h 93% 0in /  0.0mm 42 W/m2
07:08 70.2 °F /  21.2 °C 68.2 °F /  20.1 °C 29.9in /  1011.7hPa Calm   0.7mph /  1.1km/h 93% 0in /  0.0mm 54 W/m2
07:13 71.1 °F /  21.7 °C 69.1 °F /  20.6 °C 29.9in /  1011.7hPa Calm   1.6mph /  2.6km/h 93% 0in /  0.0mm 101 W/m2
07:18 72.3 °F /  22.4 °C 69.3 °F /  20.7 °C 29.9in /  1011.7hPa NW 0.7mph /  1.1km/h 1.6mph /  2.6km/h 90% 0in /  0.0mm 113 W/m2
07:23 73 °F /  22.8 °C 69.3 °F /  20.7 °C 29.9in /  1012.1hPa Calm   1.6mph /  2.6km/h 88% 0in /  0.0mm 129 W/m2
07:28 73.8 °F /  23.2 °C 69.6 °F /  20.9 °C 29.9in /  1012.1hPa Calm   2.2mph /  3.5km/h 87% 0in /  0.0mm 110 W/m2
07:33 73.9 °F /  23.3 °C 69.4 °F /  20.8 °C 29.9in /  1012.1hPa Calm   3.1mph /  5.0km/h 86% 0in /  0.0mm 149 W/m2
07:38 73.9 °F /  23.3 °C 69.3 °F /  20.7 °C 29.9in /  1012.1hPa Calm   3.8mph /  6.1km/h 85% 0in /  0.0mm 69 W/m2
07:43 73.4 °F /  23.0 °C 68.7 °F /  20.4 °C 29.9in /  1012.1hPa NW 3.1mph /  5.0km/h 5.4mph /  8.7km/h 85% 0in /  0.0mm 122 W/m2
07:48 73.2 °F /  22.9 °C 68.2 °F /  20.1 °C 29.9in /  1012.1hPa NW 0.7mph /  1.1km/h 5.4mph /  8.7km/h 84% 0in /  0.0mm 89 W/m2
07:53 73 °F /  22.8 °C 68 °F /  20.0 °C 29.9in /  1012.1hPa NW 1.6mph /  2.6km/h 5.4mph /  8.7km/h 84% 0in /  0.0mm 65 W/m2
07:58 72.9 °F /  22.7 °C 68.2 °F /  20.1 °C 29.9in /  1011.7hPa Calm   3.8mph /  6.1km/h 85% 0in /  0.0mm 65 W/m2
08:03 72.7 °F /  22.6 °C 67.8 °F /  19.9 °C 29.9in /  1011.7hPa Calm   3.8mph /  6.1km/h 85% 0in /  0.0mm 68 W/m2
08:08 72.7 °F /  22.6 °C 68.4 °F /  20.2 °C 29.9in /  1011.7hPa Calm   3.8mph /  6.1km/h 86% 0in /  0.0mm 74 W/m2
08:13 72.7 °F /  22.6 °C 68.4 °F /  20.2 °C 29.9in /  1011.7hPa Calm   3.8mph /  6.1km/h 86% 0in /  0.0mm 81 W/m2
08:18 72.9 °F /  22.7 °C 68.5 °F /  20.3 °C 29.9in /  1011.7hPa Calm   0.7mph /  1.1km/h 86% 0in /  0.0mm 94 W/m2
08:23 73 °F /  22.8 °C 68.4 °F /  20.2 °C 29.9in /  1012.1hPa Calm   2.2mph /  3.5km/h 85% 0in /  0.0mm 93 W/m2
08:28 73.4 °F /  23.0 °C 69.1 °F /  20.6 °C 29.9in /  1011.7hPa Calm   3.8mph /  6.1km/h 86% 0in /  0.0mm 88 W/m2
08:33 73.8 °F /  23.2 °C 69.1 °F /  20.6 °C 29.9in /  1011.7hPa Calm   3.8mph /  6.1km/h 85% 0in /  0.0mm 95 W/m2
08:38 74.5 °F /  23.6 °C 69.6 °F /  20.9 °C 29.9in /  1012.1hPa Calm   2.2mph /  3.5km/h 85% 0in /  0.0mm 112 W/m2
08:43 74.8 °F /  23.8 °C 69.4 °F /  20.8 °C 29.9in /  1012.1hPa Calm   3.1mph /  5.0km/h 83% 0in /  0.0mm 127 W/m2
08:48 75.2 °F /  24.0 °C 69.1 °F /  20.6 °C 29.9in /  1012.1hPa Calm   3.1mph /  5.0km/h 81% 0in /  0.0mm 134 W/m2
08:53 75.9 °F /  24.4 °C 69.6 °F /  20.9 °C 29.9in /  1012.1hPa Calm   3.8mph /  6.1km/h 81% 0in /  0.0mm 114 W/m2
08:58 76.5 °F /  24.7 °C 70 °F /  21.1 °C 29.9in /  1012.1hPa Calm   3.8mph /  6.1km/h 80% 0in /  0.0mm 323 W/m2
09:03 77.9 °F /  25.5 °C 70.2 °F /  21.2 °C 29.9in /  1011.7hPa Calm   3.1mph /  5.0km/h 77% 0in /  0.0mm 179 W/m2
09:08 77.9 °F /  25.5 °C 69.4 °F /  20.8 °C 29.9in /  1012.1hPa Calm   3.8mph /  6.1km/h 75% 0in /  0.0mm 272 W/m2
09:13 79 °F /  26.1 °C 69.6 °F /  20.9 °C 29.9in /  1011.7hPa North 3.1mph /  5.0km/h 7.6mph /  12.2km/h 73% 0in /  0.0mm 386 W/m2
09:18 79 °F /  26.1 °C 69.3 °F /  20.7 °C 29.9in /  1011.7hPa North 3.8mph /  6.1km/h 7.6mph /  12.2km/h 72% 0in /  0.0mm 334 W/m2
09:23 79.9 °F /  26.6 °C 70.2 °F /  21.2 °C 29.9in /  1011.7hPa North 2.2mph /  3.5km/h 7.6mph /  12.2km/h 72% 0in /  0.0mm 408 W/m2
09:28 80.6 °F /  27.0 °C 70 °F /  21.1 °C 29.9in /  1011.7hPa North 1.6mph /  2.6km/h 6mph /  9.7km/h 70% 0in /  0.0mm 412 W/m2
09:34 80.8 °F /  27.1 °C 69.3 °F /  20.7 °C 29.9in /  1012.1hPa North 0.7mph /  1.1km/h 6.9mph /  11.1km/h 68% 0in /  0.0mm 276 W/m2
09:39 80.2 °F /  26.8 °C 69.3 °F /  20.7 °C 29.9in /  1011.7hPa North 5.4mph /  8.7km/h 6.9mph /  11.1km/h 69% 0in /  0.0mm 204 W/m2
09:44 80.1 °F /  26.7 °C 70 °F /  21.1 °C 29.9in /  1011.7hPa Calm   6.9mph /  11.1km/h 71% 0in /  0.0mm 502 W/m2
09:49 81.9 °F /  27.7 °C 69.4 °F /  20.8 °C 29.9in /  1011.7hPa NE 3.1mph /  5.0km/h 7.6mph /  12.2km/h 66% 0in /  0.0mm 185 W/m2
09:55 80.1 °F /  26.7 °C 69.1 °F /  20.6 °C 29.9in /  1011.7hPa Calm   7.6mph /  12.2km/h 69% 0in /  0.0mm 407 W/m2
10:01 81.1 °F /  27.3 °C 70.5 °F /  21.4 °C 29.9in /  1011.7hPa Calm   4.5mph /  7.2km/h 70% 0in /  0.0mm 553 W/m2
10:06 82.8 °F /  28.2 °C 70.3 °F /  21.3 °C 29.9in /  1011.7hPa NE 0.7mph /  1.1km/h 5.4mph /  8.7km/h 66% 0in /  0.0mm 186 W/m2
10:12 81.1 °F /  27.3 °C 69.6 °F /  20.9 °C 29.9in /  1011.7hPa Calm   6mph /  9.7km/h 68% 0in /  0.0mm 209 W/m2
10:17 80.8 °F /  27.1 °C 70.5 °F /  21.4 °C 29.9in /  1011.7hPa Calm   6mph /  9.7km/h 71% 0in /  0.0mm 591 W/m2
10:22 81.5 °F /  27.5 °C 71.2 °F /  21.8 °C 29.9in /  1011.4hPa Calm   5.4mph /  8.7km/h 71% 0in /  0.0mm 662 W/m2
10:27 81.9 °F /  27.7 °C 70.7 °F /  21.5 °C 29.9in /  1011.4hPa Calm   5.4mph /  8.7km/h 69% 0in /  0.0mm 705 W/m2
10:32 82 °F /  27.8 °C 71.8 °F /  22.1 °C 29.9in /  1011.4hPa Calm   5.4mph /  8.7km/h 71% 0in /  0.0mm 695 W/m2
10:37 83.1 °F /  28.4 °C 71.4 °F /  21.9 °C 29.9in /  1011.4hPa North 0.7mph /  1.1km/h 5.4mph /  8.7km/h 68% 0in /  0.0mm 673 W/m2
10:43 83.8 °F /  28.8 °C 71.8 °F /  22.1 °C 29.9in /  1011.4hPa NNE 4.5mph /  7.2km/h 8.3mph /  13.4km/h 67% 0in /  0.0mm 423 W/m2
10:49 83.8 °F /  28.8 °C 70.9 °F /  21.6 °C 29.9in /  1011.7hPa NE 4.5mph /  7.2km/h 8.3mph /  13.4km/h 65% 0in /  0.0mm 269 W/m2
10:54 81.9 °F /  27.7 °C 70 °F /  21.1 °C 29.9in /  1011.4hPa NNE 1.6mph /  2.6km/h 8.3mph /  13.4km/h 67% 0in /  0.0mm 254 W/m2
10:59 80.4 °F /  26.9 °C 69.8 °F /  21.0 °C 29.9in /  1011.7hPa Calm   8.3mph /  13.4km/h 70% 0in /  0.0mm 252 W/m2
11:04 80.2 °F /  26.8 °C 70.3 °F /  21.3 °C 29.9in /  1011.7hPa NNW 2.2mph /  3.5km/h 6.9mph /  11.1km/h 72% 0in /  0.0mm 324 W/m2
11:09 80.1 °F /  26.7 °C 70.3 °F /  21.3 °C 29.9in /  1011.7hPa North 3.8mph /  6.1km/h 6mph /  9.7km/h 72% 0in /  0.0mm 175 W/m2
11:14 79.5 °F /  26.4 °C 69.6 °F /  20.9 °C 29.9in /  1011.7hPa NNE 3.8mph /  6.1km/h 6.9mph /  11.1km/h 72% 0in /  0.0mm 146 W/m2
11:19 79 °F /  26.1 °C 69.6 °F /  20.9 °C 29.9in /  1011.7hPa NNE 1.6mph /  2.6km/h 6.9mph /  11.1km/h 73% 0in /  0.0mm 143 W/m2
11:24 78.6 °F /  25.9 °C 69.6 °F /  20.9 °C 29.9in /  1011.7hPa Calm   6.9mph /  11.1km/h 74% 0in /  0.0mm 147 W/m2
11:29 78.6 °F /  25.9 °C 70.2 °F /  21.2 °C 29.9in /  1011.4hPa North 0.7mph /  1.1km/h 6mph /  9.7km/h 75% 0in /  0.0mm 135 W/m2
11:34 78.4 °F /  25.8 °C 70.3 °F /  21.3 °C 29.9in /  1011.4hPa Calm   6mph /  9.7km/h 76% 0in /  0.0mm 168 W/m2
11:39 78.4 °F /  25.8 °C 70.3 °F /  21.3 °C 29.9in /  1011.7hPa NE 0.7mph /  1.1km/h 5.4mph /  8.7km/h 76% 0in /  0.0mm 161 W/m2
11:44 78.4 °F /  25.8 °C 70.3 °F /  21.3 °C 29.9in /  1011.4hPa NNE 2.2mph /  3.5km/h 5.4mph /  8.7km/h 76% 0in /  0.0mm 112 W/m2
11:49 78.3 °F /  25.7 °C 70.5 °F /  21.4 °C 29.9in /  1011.4hPa Calm   5.4mph /  8.7km/h 77% 0in /  0.0mm 99 W/m2
11:54 78.1 °F /  25.6 °C 70.7 °F /  21.5 °C 29.9in /  1011.4hPa Calm   3.1mph /  5.0km/h 78% 0in /  0.0mm 120 W/m2
11:59 78.3 °F /  25.7 °C 70.9 °F /  21.6 °C 29.9in /  1011.4hPa Calm   4.5mph /  7.2km/h 78% 0in /  0.0mm 158 W/m2
12:04 78.4 °F /  25.8 °C 71.1 °F /  21.7 °C 29.9in /  1011.4hPa NNE 0.7mph /  1.1km/h 5.4mph /  8.7km/h 78% 0in /  0.0mm 202 W/m2
12:09 79 °F /  26.1 °C 70.9 °F /  21.6 °C 29.9in /  1011.4hPa Calm   5.4mph /  8.7km/h 76% 0in /  0.0mm 161 W/m2
12:14 79.3 °F /  26.3 °C 71.2 °F /  21.8 °C 29.9in /  1011.1hPa Calm   4.5mph /  7.2km/h 76% 0in /  0.0mm 174 W/m2
12:19 79.7 °F /  26.5 °C 71.4 °F /  21.9 °C 29.9in /  1011.1hPa NNE 2.2mph /  3.5km/h 5.4mph /  8.7km/h 76% 0in /  0.0mm 238 W/m2
12:24 79.5 °F /  26.4 °C 71.2 °F /  21.8 °C 29.9in /  1011.1hPa Calm   5.4mph /  8.7km/h 76% 0in /  0.0mm 270 W/m2
12:29 80.8 °F /  27.1 °C 72.7 °F /  22.6 °C 29.9in /  1011.1hPa Calm   5.4mph /  8.7km/h 76% 0in /  0.0mm 1051 W/m2
12:34 82 °F /  27.8 °C 72.1 °F /  22.3 °C 29.9in /  1011.1hPa NE 2.2mph /  3.5km/h 5.4mph /  8.7km/h 72% 0in /  0.0mm 335 W/m2
12:39 82 °F /  27.8 °C 72.7 °F /  22.6 °C 29.9in /  1011.1hPa NNE 2.2mph /  3.5km/h 7.6mph /  12.2km/h 73% 0in /  0.0mm 905 W/m2
12:44 83.3 °F /  28.5 °C 72.7 °F /  22.6 °C 29.8in /  1010.7hPa NNW 4.5mph /  7.2km/h 7.6mph /  12.2km/h 70% 0in /  0.0mm 1081 W/m2
12:49 84.9 °F /  29.4 °C 72 °F /  22.2 °C 29.9in /  1011.1hPa North 2.2mph /  3.5km/h 9.2mph /  14.8km/h 65% 0in /  0.0mm 1070 W/m2
12:54 84.4 °F /  29.1 °C 70.9 °F /  21.6 °C 29.8in /  1010.7hPa North 2.2mph /  3.5km/h 9.8mph /  15.8km/h 64% 0in /  0.0mm 236 W/m2
12:59 82.9 °F /  28.3 °C 70.5 °F /  21.4 °C 29.9in /  1011.1hPa North 2.2mph /  3.5km/h 9.8mph /  15.8km/h 66% 0in /  0.0mm 185 W/m2
13:05 81.9 °F /  27.7 °C 70.7 °F /  21.5 °C 29.8in /  1010.7hPa North 3.8mph /  6.1km/h 9.8mph /  15.8km/h 69% 0in /  0.0mm 210 W/m2
13:10 80.6 °F /  27.0 °C 70 °F /  21.1 °C 29.8in /  1010.7hPa North 3.1mph /  5.0km/h 13mph /  20.9km/h 70% 0in /  0.0mm 401 W/m2
13:15 80.2 °F /  26.8 °C 71.2 °F /  21.8 °C 29.8in /  1010.7hPa NNW 0.7mph /  1.1km/h 13mph /  20.9km/h 74% 0in /  0.0mm 325 W/m2
13:20 80.6 °F /  27.0 °C 71.2 °F /  21.8 °C 29.8in /  1010.7hPa NNE 3.1mph /  5.0km/h 7.6mph /  12.2km/h 73% 0in /  0.0mm 224 W/m2
13:25 80.4 °F /  26.9 °C 71.8 °F /  22.1 °C 29.8in /  1010.7hPa Calm   7.6mph /  12.2km/h 75% 0in /  0.0mm 158 W/m2
13:30 80.1 °F /  26.7 °C 71.4 °F /  21.9 °C 29.8in /  1010.7hPa NNE 3.1mph /  5.0km/h 6.9mph /  11.1km/h 75% 0in /  0.0mm 109 W/m2
13:35 79.7 °F /  26.5 °C 71.4 °F /  21.9 °C 29.8in /  1010.7hPa Calm   6.9mph /  11.1km/h 76% 0in /  0.0mm 135 W/m2
13:40 79.5 °F /  26.4 °C 72.5 °F /  22.5 °C 29.8in /  1010.7hPa North 4.5mph /  7.2km/h 6.9mph /  11.1km/h 79% 0in /  0.0mm 144 W/m2
13:45 78.4 °F /  25.8 °C 72.5 °F /  22.5 °C 29.9in /  1011.1hPa NNW 2.2mph /  3.5km/h 6.9mph /  11.1km/h 82% 0.01in /  0.3mm 135 W/m2
13:50 78.3 °F /  25.7 °C 72.7 °F /  22.6 °C 29.9in /  1011.1hPa NW 1.6mph /  2.6km/h 4.5mph /  7.2km/h 83% 0.01in /  0.3mm 283 W/m2
13:55 78.6 °F /  25.9 °C 73 °F /  22.8 °C 29.9in /  1011.1hPa NNW 1.6mph /  2.6km/h 4.5mph /  7.2km/h 83% 0.01in /  0.3mm 617 W/m2
14:00 79.9 °F /  26.6 °C 73.6 °F /  23.1 °C 29.9in /  1011.1hPa NNW 2.2mph /  3.5km/h 6mph /  9.7km/h 81% 0.01in /  0.3mm 339 W/m2
14:05 79.3 °F /  26.3 °C 72 °F /  22.2 °C 29.9in /  1011.1hPa North 0.7mph /  1.1km/h 6mph /  9.7km/h 78% 0.01in /  0.3mm 318 W/m2
14:10 79.2 °F /  26.2 °C 72.1 °F /  22.3 °C 29.8in /  1010.7hPa Calm   6mph /  9.7km/h 79% 0.01in /  0.3mm 266 W/m2
14:15 79 °F /  26.1 °C 73 °F /  22.8 °C 29.8in /  1010.7hPa Calm   5.4mph /  8.7km/h 82% 0.01in /  0.3mm 210 W/m2
14:20 78.4 °F /  25.8 °C 72.9 °F /  22.7 °C 29.8in /  1010.7hPa Calm   3.8mph /  6.1km/h 83% 0.01in /  0.3mm 168 W/m2
14:25 78.6 °F /  25.9 °C 73 °F /  22.8 °C 29.8in /  1010.7hPa Calm   3.8mph /  6.1km/h 83% 0.01in /  0.3mm 200 W/m2
14:30 78.6 °F /  25.9 °C 73 °F /  22.8 °C 29.8in /  1010.7hPa Calm   3.1mph /  5.0km/h 83% 0.01in /  0.3mm 250 W/m2
14:35 78.4 °F /  25.8 °C 72.9 °F /  22.7 °C 29.8in /  1010.7hPa WNW 2.2mph /  3.5km/h 3.8mph /  6.1km/h 83% 0.02in /  0.5mm 194 W/m2
14:40 78.1 °F /  25.6 °C 72.5 °F /  22.5 °C 29.8in /  1010.7hPa Calm   3.8mph /  6.1km/h 83% 0.01in /  0.3mm 144 W/m2
14:45 77.9 °F /  25.5 °C 72.3 °F /  22.4 °C 29.8in /  1010.7hPa NW 1.6mph /  2.6km/h 6.9mph /  11.1km/h 83% 0.01in /  0.3mm 131 W/m2
14:50 77.7 °F /  25.4 °C 72.7 °F /  22.6 °C 29.8in /  1010.4hPa NNW 0.7mph /  1.1km/h 6.9mph /  11.1km/h 84% 0.01in /  0.3mm 110 W/m2
14:55 77.4 °F /  25.2 °C 72.1 °F /  22.3 °C 29.8in /  1010.4hPa Calm   7.6mph /  12.2km/h 84% 0.01in /  0.3mm 110 W/m2
15:00 77.4 °F /  25.2 °C 71.8 °F /  22.1 °C 29.8in /  1010.7hPa NNW 6.9mph /  11.1km/h 9.2mph /  14.8km/h 83% 0.01in /  0.3mm 83 W/m2
15:05 76.6 °F /  24.8 °C 71.4 °F /  21.9 °C 29.8in /  1010.7hPa NW 7.6mph /  12.2km/h 11.4mph /  18.3km/h 84% 0.01in /  0.3mm 53 W/m2
15:10 75.2 °F /  24.0 °C 70.9 °F /  21.6 °C 29.9in /  1011.1hPa WNW 6mph /  9.7km/h 11.4mph /  18.3km/h 86% 0.01in /  0.3mm 32 W/m2
15:15 73.8 °F /  23.2 °C 70.3 °F /  21.3 °C 29.9in /  1011.1hPa WNW 6mph /  9.7km/h 14.5mph /  23.3km/h 89% 0.01in /  0.3mm 39 W/m2
15:20 72.1 °F /  22.3 °C 69.4 °F /  20.8 °C 29.9in /  1011.1hPa WNW 5.4mph /  8.7km/h 14.5mph /  23.3km/h 91% 0.06in /  1.5mm 35 W/m2
15:25 70.7 °F /  21.5 °C 68.9 °F /  20.5 °C 29.8in /  1010.7hPa NW 2.2mph /  3.5km/h 11.4mph /  18.3km/h 94% 0.09in /  2.3mm 34 W/m2
15:30 69.8 °F /  21.0 °C 68.4 °F /  20.2 °C 29.9in /  1011.1hPa NNW 6.9mph /  11.1km/h 10.7mph /  17.2km/h 95% 0.12in /  3.0mm 34 W/m2
15:35 69.1 °F /  20.6 °C 68.2 °F /  20.1 °C 29.8in /  1010.7hPa North 3.1mph /  5.0km/h 9.2mph /  14.8km/h 97% 0.13in /  3.3mm 40 W/m2
15:40 68.5 °F /  20.3 °C 68 °F /  20.0 °C 29.8in /  1010.7hPa North 3.1mph /  5.0km/h 11.4mph /  18.3km/h 98% 0.15in /  3.8mm 55 W/m2
15:45 68.4 °F /  20.2 °C 67.8 °F /  19.9 °C 29.8in /  1010.7hPa North 3.1mph /  5.0km/h 11.4mph /  18.3km/h 98% 0.15in /  3.8mm 47 W/m2
15:50 68.4 °F /  20.2 °C 68.2 °F /  20.1 °C 29.8in /  1010.7hPa NW 2.2mph /  3.5km/h 7.6mph /  12.2km/h 99% 0.15in /  3.8mm 51 W/m2
15:55 68.4 °F /  20.2 °C 68.2 °F /  20.1 °C 29.8in /  1010.7hPa NW 3.1mph /  5.0km/h 6.9mph /  11.1km/h 99% 0.17in /  4.3mm 46 W/m2
16:00 68.4 °F /  20.2 °C 68.2 °F /  20.1 °C 29.8in /  1010.7hPa NNW 6mph /  9.7km/h 8.3mph /  13.4km/h 99% 0.17in /  4.3mm 37 W/m2
16:05 68.5 °F /  20.3 °C 68.4 °F /  20.2 °C 29.8in /  1010.7hPa NW 4.5mph /  7.2km/h 11.4mph /  18.3km/h 99% 0.17in /  4.3mm 35 W/m2
16:10 68.7 °F /  20.4 °C 68.5 °F /  20.3 °C 29.8in /  1010.7hPa NW 3.1mph /  5.0km/h 11.4mph /  18.3km/h 99% 0.17in /  4.3mm 29 W/m2
16:15 68.7 °F /  20.4 °C 68.5 °F /  20.3 °C 29.8in /  1010.4hPa North 3.1mph /  5.0km/h 7.6mph /  12.2km/h 99% 0.18in /  4.6mm 28 W/m2
16:20 68.7 °F /  20.4 °C 68.5 °F /  20.3 °C 29.8in /  1010.4hPa NNW 2.2mph /  3.5km/h 8.3mph /  13.4km/h 99% 0.12in /  3.0mm 24 W/m2
16:25 68.7 °F /  20.4 °C 68.5 °F /  20.3 °C 29.8in /  1010.0hPa NNW 3.8mph /  6.1km/h 8.3mph /  13.4km/h 99% 0.08in /  2.0mm 22 W/m2
16:30 68.7 °F /  20.4 °C 68.5 °F /  20.3 °C 29.8in /  1010.4hPa NNW 6mph /  9.7km/h 10.7mph /  17.2km/h 99% 0.07in /  1.8mm 19 W/m2
16:35 68.7 °F /  20.4 °C 68.5 °F /  20.3 °C 29.8in /  1010.4hPa Calm   10.7mph /  17.2km/h 99% 0.06in /  1.5mm 19 W/m2
16:40 68.7 °F /  20.4 °C 68.5 °F /  20.3 °C 29.8in /  1010.4hPa North 0.7mph /  1.1km/h 8.3mph /  13.4km/h 99% 0.04in /  1.0mm 22 W/m2
16:45 68.7 °F /  20.4 °C 68.5 °F /  20.3 °C 29.8in /  1010.4hPa Calm   4.5mph /  7.2km/h 99% 0.04in /  1.0mm 27 W/m2
16:50 68.5 °F /  20.3 °C 68.4 °F /  20.2 °C 29.8in /  1010.4hPa Calm   4.5mph /  7.2km/h 99% 0.05in /  1.3mm 31 W/m2
16:55 68.4 °F /  20.2 °C 68.2 °F /  20.1 °C 29.8in /  1010.4hPa Calm   2.2mph /  3.5km/h 99% 0.04in /  1.0mm 31 W/m2
17:00 68.4 °F /  20.2 °C 68.2 °F /  20.1 °C 29.8in /  1010.0hPa Calm   2.2mph /  3.5km/h 99% 0.04in /  1.0mm 33 W/m2
17:05 68.2 °F /  20.1 °C 67.8 °F /  19.9 °C 29.8in /  1010.0hPa NE 1.6mph /  2.6km/h 4.5mph /  7.2km/h 99% 0.05in /  1.3mm 38 W/m2
17:10 68 °F /  20.0 °C 67.6 °F /  19.8 °C 29.8in /  1009.7hPa NE 0.7mph /  1.1km/h 4.5mph /  7.2km/h 99% 0.05in /  1.3mm 48 W/m2
17:15 68 °F /  20.0 °C 67.6 °F /  19.8 °C 29.8in /  1009.4hPa NE 3.1mph /  5.0km/h 6.9mph /  11.1km/h 99% 0.05in /  1.3mm 71 W/m2
17:20 68 °F /  20.0 °C 67.6 °F /  19.8 °C 29.8in /  1009.0hPa NNE 3.1mph /  5.0km/h 8.3mph /  13.4km/h 99% 0.05in /  1.3mm 81 W/m2
17:25 68 °F /  20.0 °C 67.6 °F /  19.8 °C 29.8in /  1009.0hPa NNE 3.8mph /  6.1km/h 9.2mph /  14.8km/h 99% 0.05in /  1.3mm 96 W/m2
17:30 68 °F /  20.0 °C 67.5 °F /  19.7 °C 29.8in /  1009.4hPa North 0.7mph /  1.1km/h 9.8mph /  15.8km/h 98% 0.05in /  1.3mm 105 W/m2
17:35 68.4 °F /  20.2 °C 67.5 °F /  19.7 °C 29.8in /  1009.4hPa North 3.1mph /  5.0km/h 9.8mph /  15.8km/h 97% 0.04in /  1.0mm 90 W/m2
17:40 68.5 °F /  20.3 °C 67.5 °F /  19.7 °C 29.8in /  1009.4hPa North 2.2mph /  3.5km/h 9.8mph /  15.8km/h 96% 0.04in /  1.0mm 102 W/m2
17:45 68.7 °F /  20.4 °C 67.3 °F /  19.6 °C 29.8in /  1009.4hPa NNW 4.5mph /  7.2km/h 9.8mph /  15.8km/h 95% 0.04in /  1.0mm 97 W/m2
17:50 68.7 °F /  20.4 °C 67.3 °F /  19.6 °C 29.8in /  1009.4hPa NNW 5.4mph /  8.7km/h 9.8mph /  15.8km/h 95% 0.04in /  1.0mm 128 W/m2
17:55 69.1 °F /  20.6 °C 67.6 °F /  19.8 °C 29.8in /  1009.7hPa NNW 3.1mph /  5.0km/h 8.3mph /  13.4km/h 95% 0.04in /  1.0mm 130 W/m2
18:00 69.1 °F /  20.6 °C 67.6 °F /  19.8 °C 29.8in /  1009.7hPa NNE 4.5mph /  7.2km/h 10.7mph /  17.2km/h 95% 0.04in /  1.0mm 107 W/m2
18:05 68.7 °F /  20.4 °C 66.9 °F /  19.4 °C 29.8in /  1009.4hPa NNE 2.2mph /  3.5km/h 10.7mph /  17.2km/h 94% 0.02in /  0.5mm 91 W/m2
18:10 68.7 °F /  20.4 °C 66.9 °F /  19.4 °C 29.8in /  1009.7hPa North 0.7mph /  1.1km/h 9.8mph /  15.8km/h 94% 0.02in /  0.5mm 94 W/m2
18:15 69.8 °F /  21.0 °C 67.6 °F /  19.8 °C 29.8in /  1010.0hPa North 3.8mph /  6.1km/h 9.8mph /  15.8km/h 93% 0.01in /  0.3mm 311 W/m2
18:20 70.7 °F /  21.5 °C 68.4 °F /  20.2 °C 29.8in /  1010.0hPa North 3.8mph /  6.1km/h 9.2mph /  14.8km/h 92% 0.01in /  0.3mm 190 W/m2
18:25 71.1 °F /  21.7 °C 67.5 °F /  19.7 °C 29.8in /  1010.0hPa North 3.1mph /  5.0km/h 12.1mph /  19.5km/h 88% 0.01in /  0.3mm 131 W/m2
18:30 71.1 °F /  21.7 °C 67.5 °F /  19.7 °C 29.8in /  1010.4hPa North 2.2mph /  3.5km/h 12.1mph /  19.5km/h 88% 0.01in /  0.3mm 179 W/m2
18:35 71.1 °F /  21.7 °C 67.6 °F /  19.8 °C 29.8in /  1010.0hPa NNW 1.6mph /  2.6km/h 6.9mph /  11.1km/h 89% 0.01in /  0.3mm 103 W/m2
18:40 71.4 °F /  21.9 °C 68.4 °F /  20.2 °C 29.8in /  1010.4hPa North 2.2mph /  3.5km/h 6mph /  9.7km/h 90% 0.01in /  0.3mm 78 W/m2
18:45 71.2 °F /  21.8 °C 67.3 °F /  19.6 °C 29.8in /  1010.4hPa NNE 0.7mph /  1.1km/h 6.9mph /  11.1km/h 87% 0in /  0.0mm 71 W/m2
18:50 71.4 °F /  21.9 °C 67.5 °F /  19.7 °C 29.8in /  1010.4hPa North 0.7mph /  1.1km/h 6.9mph /  11.1km/h 87% 0in /  0.0mm 63 W/m2
18:55 71.4 °F /  21.9 °C 67.5 °F /  19.7 °C 29.8in /  1010.4hPa North 2.2mph /  3.5km/h 6.9mph /  11.1km/h 87% 0in /  0.0mm 75 W/m2
19:00 71.2 °F /  21.8 °C 67.3 °F /  19.6 °C 29.8in /  1010.4hPa North 0.7mph /  1.1km/h 7.6mph /  12.2km/h 87% 0in /  0.0mm 57 W/m2
19:05 71.1 °F /  21.7 °C 66.9 °F /  19.4 °C 29.8in /  1010.4hPa North 0.7mph /  1.1km/h 7.6mph /  12.2km/h 87% 0in /  0.0mm 59 W/m2
19:10 71.1 °F /  21.7 °C 66.9 °F /  19.4 °C 29.8in /  1010.4hPa NNE 1.6mph /  2.6km/h 7.6mph /  12.2km/h 87% 0in /  0.0mm 84 W/m2
19:15 71.2 °F /  21.8 °C 66.9 °F /  19.4 °C 29.8in /  1010.4hPa Calm   6.9mph /  11.1km/h 86% 0in /  0.0mm 64 W/m2
19:20 71.2 °F /  21.8 °C 67.3 °F /  19.6 °C 29.8in /  1010.4hPa NNE 4.5mph /  7.2km/h 6.9mph /  11.1km/h 87% 0in /  0.0mm 57 W/m2
19:25 71.2 °F /  21.8 °C 66.9 °F /  19.4 °C 29.8in /  1010.4hPa North 0.7mph /  1.1km/h 7.6mph /  12.2km/h 86% 0in /  0.0mm 50 W/m2
19:30 71.4 °F /  21.9 °C 66.9 °F /  19.4 °C 29.8in /  1010.4hPa North 3.8mph /  6.1km/h 7.6mph /  12.2km/h 86% 0in /  0.0mm 32 W/m2
19:35 71.1 °F /  21.7 °C 66.4 °F /  19.1 °C 29.8in /  1010.4hPa North 1.6mph /  2.6km/h 9.2mph /  14.8km/h 85% 0in /  0.0mm 27 W/m2
19:40 70.9 °F /  21.6 °C 66.2 °F /  19.0 °C 29.8in /  1010.4hPa North 0.7mph /  1.1km/h 9.2mph /  14.8km/h 85% 0in /  0.0mm 24 W/m2
19:45 70.5 °F /  21.4 °C 66.2 °F /  19.0 °C 29.8in /  1010.4hPa North 3.1mph /  5.0km/h 7.6mph /  12.2km/h 86% 0in /  0.0mm 20 W/m2
19:50 70.3 °F /  21.3 °C 66.4 °F /  19.1 °C 29.8in /  1010.4hPa North 3.8mph /  6.1km/h 6.9mph /  11.1km/h 87% 0in /  0.0mm 12 W/m2
19:55 70.2 °F /  21.2 °C 66 °F /  18.9 °C 29.8in /  1010.4hPa North 2.2mph /  3.5km/h 7.6mph /  12.2km/h 87% 0in /  0.0mm 9 W/m2
20:00 70 °F /  21.1 °C 66.4 °F /  19.1 °C 29.8in /  1010.4hPa North 3.8mph /  6.1km/h 8.3mph /  13.4km/h 88% 0in /  0.0mm 6 W/m2
20:05 70 °F /  21.1 °C 66.4 °F /  19.1 °C 29.8in /  1010.4hPa North 3.8mph /  6.1km/h 8.3mph /  13.4km/h 88% 0in /  0.0mm 4 W/m2
20:24 69.3 °F /  20.7 °C 66.6 °F /  19.2 °C 29.8in /  1010.4hPa NNW 2.2mph /  3.5km/h 6.9mph /  11.1km/h 91% 0in /  0.0mm 0 W/m2
20:29 69.1 °F /  20.6 °C 66.7 °F /  19.3 °C 29.8in /  1010.4hPa NNW 3.1mph /  5.0km/h 7.6mph /  12.2km/h 92% 0in /  0.0mm 0 W/m2
20:34 69.1 °F /  20.6 °C 66.7 °F /  19.3 °C 29.8in /  1010.4hPa NNW 1.6mph /  2.6km/h 7.6mph /  12.2km/h 92% 0in /  0.0mm 0 W/m2
20:39 68.5 °F /  20.3 °C 66.6 °F /  19.2 °C 29.8in /  1010.7hPa NNW 3.1mph /  5.0km/h 6mph /  9.7km/h 93% 0in /  0.0mm 0 W/m2
20:45 68.5 °F /  20.3 °C 66.6 °F /  19.2 °C 29.8in /  1010.7hPa North 3.8mph /  6.1km/h 6mph /  9.7km/h 93% 0in /  0.0mm 0 W/m2
20:50 68.5 °F /  20.3 °C 66.6 °F /  19.2 °C 29.8in /  1010.4hPa North 4.5mph /  7.2km/h 8.3mph /  13.4km/h 93% 0in /  0.0mm 0 W/m2
20:55 68.5 °F /  20.3 °C 66.6 °F /  19.2 °C 29.8in /  1010.4hPa NNW 3.1mph /  5.0km/h 8.3mph /  13.4km/h 93% 0in /  0.0mm 0 W/m2
21:00 68.5 °F /  20.3 °C 66.6 °F /  19.2 °C 29.8in /  1010.4hPa NNW 0.7mph /  1.1km/h 8.3mph /  13.4km/h 93% 0in /  0.0mm 0 W/m2
21:05 68.5 °F /  20.3 °C 66.7 °F /  19.3 °C 29.8in /  1010.7hPa NNW 2.2mph /  3.5km/h 8.3mph /  13.4km/h 94% 0in /  0.0mm 0 W/m2
21:10 68.5 °F /  20.3 °C 66.7 °F /  19.3 °C 29.8in /  1010.7hPa NNW 1.6mph /  2.6km/h 5.4mph /  8.7km/h 94% 0in /  0.0mm 0 W/m2
21:15 68.5 °F /  20.3 °C 66.7 °F /  19.3 °C 29.8in /  1010.7hPa NNW 1.6mph /  2.6km/h 7.6mph /  12.2km/h 94% 0in /  0.0mm 0 W/m2
21:20 68.5 °F /  20.3 °C 66.6 °F /  19.2 °C 29.8in /  1010.7hPa North 2.2mph /  3.5km/h 7.6mph /  12.2km/h 93% 0in /  0.0mm 0 W/m2
21:25 68.5 °F /  20.3 °C 66.6 °F /  19.2 °C 29.8in /  1010.7hPa North 0.7mph /  1.1km/h 6.9mph /  11.1km/h 93% 0in /  0.0mm 0 W/m2
21:31 68.5 °F /  20.3 °C 66.6 °F /  19.2 °C 29.8in /  1010.7hPa North 2.2mph /  3.5km/h 6.9mph /  11.1km/h 93% 0in /  0.0mm 0 W/m2
21:37 68.5 °F /  20.3 °C 66.6 °F /  19.2 °C 29.8in /  1010.7hPa NNW 1.6mph /  2.6km/h 6.9mph /  11.1km/h 93% 0in /  0.0mm 0 W/m2
21:42 68.5 °F /  20.3 °C 66.6 °F /  19.2 °C 29.8in /  1010.7hPa NNW 1.6mph /  2.6km/h 6.9mph /  11.1km/h 93% 0in /  0.0mm 0 W/m2
21:47 68.5 °F /  20.3 °C 66.6 °F /  19.2 °C 29.8in /  1010.7hPa NW 2.2mph /  3.5km/h 6mph /  9.7km/h 93% 0in /  0.0mm 0 W/m2
21:52 68.5 °F /  20.3 °C 66.6 °F /  19.2 °C 29.8in /  1010.7hPa NNW 2.2mph /  3.5km/h 6mph /  9.7km/h 93% 0in /  0.0mm 0 W/m2
21:57 68.4 °F /  20.2 °C 66.6 °F /  19.2 °C 29.9in /  1011.1hPa Calm   6.9mph /  11.1km/h 94% 0in /  0.0mm 0 W/m2
22:02 68.2 °F /  20.1 °C 66.4 °F /  19.1 °C 29.9in /  1011.1hPa NNW 4.5mph /  7.2km/h 7.6mph /  12.2km/h 94% 0in /  0.0mm 0 W/m2
22:09 68 °F /  20.0 °C 66.6 °F /  19.2 °C 29.9in /  1011.4hPa NNW 2.2mph /  3.5km/h 7.6mph /  12.2km/h 95% 0in /  0.0mm 0 W/m2
22:15 67.6 °F /  19.8 °C 66.6 °F /  19.2 °C 29.9in /  1011.4hPa NNW 1.6mph /  2.6km/h 6mph /  9.7km/h 96% 0in /  0.0mm 0 W/m2
22:20 67.6 °F /  19.8 °C 66.7 °F /  19.3 °C 29.9in /  1011.1hPa NNW 2.2mph /  3.5km/h 6mph /  9.7km/h 97% 0in /  0.0mm 0 W/m2
22:25 67.6 °F /  19.8 °C 66.7 °F /  19.3 °C 29.9in /  1011.4hPa Calm   6mph /  9.7km/h 97% 0in /  0.0mm 0 W/m2
22:30 67.6 °F /  19.8 °C 66.7 °F /  19.3 °C 29.9in /  1011.4hPa North 0.7mph /  1.1km/h 6mph /  9.7km/h 97% 0in /  0.0mm 0 W/m2
22:35 67.6 °F /  19.8 °C 66.7 °F /  19.3 °C 29.9in /  1011.4hPa Calm   3.1mph /  5.0km/h 97% 0in /  0.0mm 0 W/m2
22:40 67.6 °F /  19.8 °C 66.7 °F /  19.3 °C 29.9in /  1011.4hPa Calm   2.2mph /  3.5km/h 97% 0in /  0.0mm 0 W/m2
22:46 67.6 °F /  19.8 °C 66.7 °F /  19.3 °C 29.9in /  1011.4hPa Calm   1.6mph /  2.6km/h 97% 0in /  0.0mm 0 W/m2
22:51 67.3 °F /  19.6 °C 66 °F /  18.9 °C 29.9in /  1011.4hPa Calm     96% 0in /  0.0mm 0 W/m2
22:56 67.1 °F /  19.5 °C 66 °F /  18.9 °C 29.9in /  1011.4hPa Calm     96% 0in /  0.0mm 0 W/m2
23:01 66.9 °F /  19.4 °C 66 °F /  18.9 °C 29.9in /  1011.4hPa Calm   1.6mph /  2.6km/h 97% 0in /  0.0mm 0 W/m2
23:06 66.7 °F /  19.3 °C 65.8 °F /  18.8 °C 29.9in /  1011.4hPa Calm   1.6mph /  2.6km/h 97% 0in /  0.0mm 0 W/m2
23:11 66.7 °F /  19.3 °C 65.8 °F /  18.8 °C 29.9in /  1011.4hPa NW 0.7mph /  1.1km/h 3.1mph /  5.0km/h 97% 0in /  0.0mm 0 W/m2
23:16 66.7 °F /  19.3 °C 66.2 °F /  19.0 °C 29.9in /  1011.4hPa NW 2.2mph /  3.5km/h 3.8mph /  6.1km/h 98% 0in /  0.0mm 0 W/m2
23:21 66.7 °F /  19.3 °C 66.2 °F /  19.0 °C 29.9in /  1011.4hPa Calm   3.8mph /  6.1km/h 98% 0in /  0.0mm 0 W/m2
23:26 66.7 °F /  19.3 °C 66.2 °F /  19.0 °C 29.9in /  1011.4hPa Calm   3.1mph /  5.0km/h 98% 0in /  0.0mm 0 W/m2
23:31 66.6 °F /  19.2 °C 66 °F /  18.9 °C 29.9in /  1011.4hPa Calm   1.6mph /  2.6km/h 98% 0in /  0.0mm 0 W/m2
23:36 66.6 °F /  19.2 °C 66 °F /  18.9 °C 29.9in /  1011.4hPa Calm   0.7mph /  1.1km/h 98% 0in /  0.0mm 0 W/m2
23:41 66.6 °F /  19.2 °C 66 °F /  18.9 °C 29.9in /  1011.4hPa Calm   0.7mph /  1.1km/h 98% 0in /  0.0mm 0 W/m2
23:46 66.4 °F /  19.1 °C 65.8 °F /  18.8 °C 29.9in /  1011.4hPa Calm   0.7mph /  1.1km/h 98% 0in /  0.0mm 0 W/m2
23:51 66.4 °F /  19.1 °C 65.8 °F /  18.8 °C 29.9in /  1011.7hPa Calm   0.7mph /  1.1km/h 98% 0in /  0.0mm 0 W/m2
23:56 66.2 °F /  19.0 °C 65.7 °F /  18.7 °C 29.9in /  1011.4hPa Calm   0.7mph /  1.1km/h 98% 0in /  0.0mm 0 W/m2
Northern Hawkes Bay. New Zealand Historic Data
Compliments of Weather Underground - 2 mb